الصفحة الرئيسية
METAR-TAF:

METAR-TAF

مطار :

Agadez, النيجر

دائرة عرض: 16-58N, خط طول: 007-59E, ارتفاع: 501 متر

مراقبة الطقس الحالي

تاريخ ووقت الإصدار 1ساعة و 9 دقيقة قبل الساعة 17:00UTC
ريح 16 عقدة من الشرق/الجنوب الشرقي
درجة الحرارة 25°درجة مئوية
الرطوبة 8%
ضغط 1017 hPa
الرؤية 10 كم أو أكثر
الغيوم لا تقل 1500 م ولا وجود لمزنة ركامية السحاب الأسود

METAR: DRZA 141700Z 12016KT CAVOK 25/M11 Q1017

زمن: 19:09 (18:09 UTC)

توقعات

تاريخ ووقت الإصدار 1ساعة و 9 دقيقة قبل الساعة 17:00UTC
التوقعات صالحة من14 الساعة 18 UTC إلى 15 الساعة 18 UTC
ريح 12 عقدة من الشرق
الرؤية 10 كم أو أكثر
الغيوم لا تقل 1500 م ولا وجود لمزنة ركامية السحاب الأسود
نظرية الاحتمالات 30% :
مؤقت
من 15 الساعة 08 UTC إلى 15 الساعة 14 UTC
ريح 22 عقدة من الشرق/الجنوب الشرقي
الرؤية: 4000 متر
هبوب الغبار

TAF: DRZA 141700Z 1418/1518 10012KT CAVOK PROB30 TEMPO 1508/1514 12022KT 4000 BLDU

أرصاد الطقس والتوقعات من أكثر من 4000 مطار (تقارير الطقس للمطار METAR والتنبؤ بالطقس بالمطارTAF).

المحطات المتاحة هي النقط الصفراء والحمراء على الخريطة.

حرك المؤشر فوق النقطة لمعرفة اسم المحطة.

ثم انقر لمعرفة أرصاد وتوقعات الطقس.

لتغيير الخارطة: اضغط على الأزرار الخضراء مع رمز الصليب الأسود للتكبير. على الزر الأخضر مع شرطة للتصغير، أو على الأسهم الخضراء للخرائط المجاورة.


METAR-TAF: